首页
METAR-TAF:

METAR-TAF

机场 :

巴塞尔-米卢斯-弗赖堡欧洲机场

巴塞尔-米卢斯-弗赖堡欧洲机场, 法国

纬度: 47-36N, 经度: 007-31E, 海拔: 270米

当前天气观测

该预报发布于10分钟前的14:00 UTC
风速4节,风向南转南东,在东转东南南转西南之间变化
温度 12°C
湿度 54%
气压 1020 hPa
能见度10公里或以上
少量云层高于3300英尺
多云层高于7600英尺

METAR: LFSB 071400Z 15004KT 110V200 9999 FEW033 BKN076 12/03 Q1020 NOSIG

时间: 15:10 (14:10 UTC)

预报

该预报发布于3小时和10分钟前的11:00 UTC
预报有效从07日的 12点(UTC)到 08日的 12点(UTC)
风速5节,风向东南
能见度10公里或以上
散云层高于4000英尺
几率 40% :
短暂存在
从 07日的 13点(UTC)到 07日的 20点(UTC)
少量云层高于3000英尺, 塔状积云.
小阵雨
成为
从 07日的 16点(UTC)到 07日的 18点(UTC)
风速6节,风向北转西北
短暂存在
从 08日的 00点(UTC)到 08日的 11点(UTC)
多云层高于1300英尺
几率 40% :
短暂存在
从 08日的 00点(UTC)到 08日的 09点(UTC)
能見度: 4000
多云层高于800英尺
轻雾

TAF: LFSB 071100Z 0712/0812 14005KT 9999 SCT040 PROB40 TEMPO 0713/0720 -SHRA FEW030TCU BECMG 0716/0718 33006KT TEMPO 0800/0811 BKN013 PROB40 TEMPO 0800/0809 4000 BR BKN008

超过4000个机场的气象观测和天气预报(METAR&TAF报告)。

可查询的气象台以黄色和红色小点在地图上表示。

将鼠标移到小点上方,可查看气象台名称。

然后点击查看天气观测和预报。

如需切换地图:点击带黑十字的绿色按钮放大地图;点击带横线的绿色按钮缩小地图;或者点击绿色箭头查看邻近地区的地图。


METAR-TAF: